Time;durP1;ratioP1;P1;durP2;ratioP2;P2;SDS_P1;SDS_P2;PMS_P1;PMS_P2;Temp;Humidity;BMP_temperature;BMP_pressure;BME280_temperature;BME280_humidity;BME280_pressure;Samples;Min_cycle;Max_cycle;Signal;HPM_P1;HPM_P2
2021/01/21 00:02:15;;;;;;;11.93;2.67;;;;;;;;;;5015092;28;20036;-46
2021/01/21 00:04:45;;;;;;;15.10;3.13;;;;;;;;;;5032898;28;20442;-48
2021/01/21 00:07:16;;;;;;;26.05;3.05;;;;;;;;;;5033214;28;20236;-45
2021/01/21 00:09:43;;;;;;;11.07;2.50;;;;;;;;;;5033134;28;20041;-51
2021/01/21 00:12:11;;;;;;;17.10;3.38;;;;;;;;;;5033158;28;20026;-45
2021/01/21 00:14:38;;;;;;;17.40;3.17;;;;;;;;;;5033055;28;20029;-48
2021/01/21 00:17:06;;;;;;;18.63;3.35;;;;;;;;;;5033161;28;20026;-48
2021/01/21 00:19:33;;;;;;;14.32;3.40;;;;;;;;;;5032812;28;20099;-51
2021/01/21 00:22:01;;;;;;;15.20;3.33;;;;;;;;;;5031587;28;20036;-51
2021/01/21 00:24:28;;;;;;;15.55;2.88;;;;;;;;;;5013163;28;20062;-47
2021/01/21 00:26:56;;;;;;;19.33;3.35;;;;;;;;;;5012980;28;20507;-45
2021/01/21 00:29:26;;;;;;;11.57;2.72;;;;;;;;;;5013238;28;20041;-45
2021/01/21 00:31:54;;;;;;;12.63;3.08;;;;;;;;;;5013170;28;20026;-44
2021/01/21 00:34:21;;;;;;;12.43;2.92;;;;;;;;;;5013115;28;20022;-45
2021/01/21 00:36:49;;;;;;;20.23;3.22;;;;;;;;;;5013028;28;20383;-46
2021/01/21 00:39:19;;;;;;;26.92;3.75;;;;;;;;;;5012396;28;20076;-54
2021/01/21 00:41:49;;;;;;;17.27;2.30;;;;;;;;;;5012296;28;20022;-51
2021/01/21 00:44:20;;;;;;;17.92;3.13;;;;;;;;;;5007429;28;20028;-54
2021/01/21 00:46:47;;;;;;;7.90;2.38;;;;;;;;;;5011921;28;20044;-50
2021/01/21 00:49:14;;;;;;;15.57;1.95;;;;;;;;;;5011958;28;20418;-55
2021/01/21 00:51:42;;;;;;;11.05;2.15;;;;;;;;;;5011911;28;20034;-54
2021/01/21 00:54:12;;;;;;;12.25;2.50;;;;;;;;;;5010863;28;20022;-52
2021/01/21 00:56:43;;;;;;;18.23;3.05;;;;;;;;;;5010372;28;20029;-47
2021/01/21 00:59:10;;;;;;;22.80;3.40;;;;;;;;;;5010357;28;20026;-55
2021/01/21 01:01:38;;;;;;;20.63;3.05;;;;;;;;;;5011024;28;20494;-49
2021/01/21 01:04:06;;;;;;;22.02;2.95;;;;;;;;;;5011949;28;20018;-51
2021/01/21 01:06:36;;;;;;;17.30;1.90;;;;;;;;;;5011332;28;20474;-47
2021/01/21 01:09:04;;;;;;;17.23;2.03;;;;;;;;;;5011228;28;20502;-50
2021/01/21 01:11:31;;;;;;;8.63;1.77;;;;;;;;;;5011530;28;20033;-48
2021/01/21 01:13:59;;;;;;;18.42;2.22;;;;;;;;;;5011563;28;20455;-46
2021/01/21 01:16:26;;;;;;;18.80;2.30;;;;;;;;;;5010879;28;20034;-48
2021/01/21 01:18:54;;;;;;;22.75;2.45;;;;;;;;;;5010349;28;20044;-49
2021/01/21 01:21:21;;;;;;;15.48;2.03;;;;;;;;;;4993779;28;20066;-47
2021/01/21 01:23:49;;;;;;;10.23;2.03;;;;;;;;;;5010785;28;20076;-49
2021/01/21 01:26:16;;;;;;;18.65;1.77;;;;;;;;;;5010982;28;20046;-47
2021/01/21 01:28:46;;;;;;;20.48;1.75;;;;;;;;;;5009982;28;20018;-48
2021/01/21 01:31:14;;;;;;;12.43;1.70;;;;;;;;;;5011182;28;20080;-46
2021/01/21 01:33:41;;;;;;;9.68;1.50;;;;;;;;;;5010320;28;20022;-48
2021/01/21 01:36:09;;;;;;;9.82;1.48;;;;;;;;;;5009900;28;20033;-46
2021/01/21 01:38:36;;;;;;;12.57;2.05;;;;;;;;;;5010553;28;20052;-47
2021/01/21 01:41:04;;;;;;;15.73;1.30;;;;;;;;;;5010840;28;20029;-47
2021/01/21 01:43:31;;;;;;;12.00;1.40;;;;;;;;;;5010156;28;20049;-46
2021/01/21 01:45:59;;;;;;;12.73;1.50;;;;;;;;;;5006703;28;20560;-48
2021/01/21 01:48:26;;;;;;;5.55;1.15;;;;;;;;;;5010131;28;20366;-45
2021/01/21 01:50:54;;;;;;;11.43;1.85;;;;;;;;;;5010929;28;20068;-47
2021/01/21 01:53:21;;;;;;;12.25;1.20;;;;;;;;;;5010937;28;20466;-48
2021/01/21 01:55:49;;;;;;;13.90;1.55;;;;;;;;;;5011143;28;20048;-47
2021/01/21 01:58:17;;;;;;;11.35;1.55;;;;;;;;;;5011392;28;20556;-48
2021/01/21 02:00:45;;;;;;;11.40;1.15;;;;;;;;;;5010854;28;20030;-50
2021/01/21 02:03:12;;;;;;;6.50;1.35;;;;;;;;;;5011088;28;20383;-50
2021/01/21 02:05:40;;;;;;;5.70;1.35;;;;;;;;;;5011386;28;20045;-48
2021/01/21 02:08:07;;;;;;;6.90;1.10;;;;;;;;;;5010895;28;20022;-47
2021/01/21 02:10:35;;;;;;;9.90;1.80;;;;;;;;;;5010510;28;20393;-48
2021/01/21 02:13:14;;;;;;;14.38;1.27;;;;;;;;;;5009306;28;20389;-46
2021/01/21 02:15:58;;;;;;;11.32;1.23;;;;;;;;;;5010544;28;20033;-50
2021/01/21 02:18:32;;;;;;;7.75;1.17;;;;;;;;;;5008493;28;20509;-49
2021/01/21 02:21:06;;;;;;;6.07;1.20;;;;;;;;;;5010485;28;20454;-46
2021/01/21 02:23:33;;;;;;;5.63;0.88;;;;;;;;;;5009868;28;20034;-47
2021/01/21 02:26:20;;;;;;;11.52;1.15;;;;;;;;;;5011020;28;20092;-47
2021/01/21 02:29:03;;;;;;;7.15;1.05;;;;;;;;;;5004595;28;20117;-48
2021/01/21 02:31:46;;;;;;;8.23;1.45;;;;;;;;;;5014106;28;20030;-49
2021/01/21 02:34:17;;;;;;;5.35;1.05;;;;;;;;;;5013905;28;20097;-47
2021/01/21 02:36:45;;;;;;;8.45;1.30;;;;;;;;;;5014174;28;20080;-49
2021/01/21 02:39:14;;;;;;;11.00;1.33;;;;;;;;;;5012475;28;20485;-45
2021/01/21 02:41:41;;;;;;;7.32;1.10;;;;;;;;;;5013068;28;20014;-45
2021/01/21 02:44:08;;;;;;;6.25;1.00;;;;;;;;;;5013195;28;20029;-48
2021/01/21 02:46:35;;;;;;;10.52;1.25;;;;;;;;;;5014096;28;20091;-49
2021/01/21 02:49:02;;;;;;;8.70;1.00;;;;;;;;;;5014118;28;20489;-49
2021/01/21 02:51:42;;;;;;;9.43;0.95;;;;;;;;;;5014156;28;20037;-49
2021/01/21 02:54:09;;;;;;;5.88;0.80;;;;;;;;;;5013888;28;20026;-49
2021/01/21 02:56:37;;;;;;;7.85;0.98;;;;;;;;;;5013718;28;20037;-49
2021/01/21 02:59:05;;;;;;;8.15;1.05;;;;;;;;;;5013451;28;20054;-47
2021/01/21 03:01:36;;;;;;;9.60;0.93;;;;;;;;;;5013688;28;20514;-48
2021/01/21 03:04:04;;;;;;;6.18;1.05;;;;;;;;;;5013412;28;20052;-51
2021/01/21 03:06:34;;;;;;;8.13;1.35;;;;;;;;;;5011010;28;20028;-55
2021/01/21 03:09:01;;;;;;;5.32;1.15;;;;;;;;;;5013044;28;20489;-55
2021/01/21 03:11:28;;;;;;;6.95;1.20;;;;;;;;;;5005943;28;20547;-51
2021/01/21 03:13:56;;;;;;;7.75;1.23;;;;;;;;;;5007923;28;20056;-50
2021/01/21 03:16:23;;;;;;;8.98;1.10;;;;;;;;;;5012512;28;20514;-52
2021/01/21 03:18:51;;;;;;;8.15;1.35;;;;;;;;;;5012943;28;20038;-50
2021/01/21 03:21:19;;;;;;;9.27;2.15;;;;;;;;;;5012457;28;20101;-49
2021/01/21 03:23:47;;;;;;;8.57;1.58;;;;;;;;;;5012865;28;20025;-51
2021/01/21 03:26:14;;;;;;;11.70;1.38;;;;;;;;;;5011798;28;20053;-48
2021/01/21 03:28:42;;;;;;;8.43;1.40;;;;;;;;;;5012707;28;20029;-49
2021/01/21 03:31:09;;;;;;;11.68;1.05;;;;;;;;;;5012523;28;20046;-50
2021/01/21 03:33:36;;;;;;;67.72;12.50;;;;;;;;;;5013511;28;20029;-50
2021/01/21 03:36:03;;;;;;;28.02;5.28;;;;;;;;;;5013574;28;20025;-50
2021/01/21 03:38:30;;;;;;;23.27;3.53;;;;;;;;;;5013881;28;20045;-53
2021/01/21 03:40:57;;;;;;;16.10;2.20;;;;;;;;;;5012070;28;20061;-49
2021/01/21 03:43:25;;;;;;;8.85;1.70;;;;;;;;;;5019039;28;20022;-44
2021/01/21 03:45:52;;;;;;;7.72;1.55;;;;;;;;;;5019938;28;20488;-45
2021/01/21 03:48:20;;;;;;;8.95;1.42;;;;;;;;;;5023272;28;20020;-45
2021/01/21 03:50:50;;;;;;;6.10;1.40;;;;;;;;;;5024076;28;20033;-45
2021/01/21 03:53:17;;;;;;;5.60;1.25;;;;;;;;;;5023383;28;20097;-45
2021/01/21 03:55:45;;;;;;;5.18;1.10;;;;;;;;;;5022232;28;20021;-45
2021/01/21 03:58:13;;;;;;;4.95;1.27;;;;;;;;;;5020153;28;20033;-45
2021/01/21 04:00:41;;;;;;;11.77;0.98;;;;;;;;;;5022655;28;20061;-45
2021/01/21 04:03:09;;;;;;;9.10;1.10;;;;;;;;;;5023659;28;20022;-46
2021/01/21 04:05:37;;;;;;;12.70;1.30;;;;;;;;;;5025310;28;20381;-46
2021/01/21 04:08:05;;;;;;;5.40;0.90;;;;;;;;;;5021536;28;20057;-45
2021/01/21 04:10:33;;;;;;;10.65;1.02;;;;;;;;;;5017044;28;20026;-45
2021/01/21 04:13:00;;;;;;;3.90;0.75;;;;;;;;;;5020984;28;20022;-46
2021/01/21 04:15:28;;;;;;;4.28;0.70;;;;;;;;;;5031398;28;20021;-46
2021/01/21 04:17:55;;;;;;;7.15;1.33;;;;;;;;;;5031470;28;20022;-46
2021/01/21 04:20:23;;;;;;;7.53;1.23;;;;;;;;;;5032902;28;20042;-46
2021/01/21 04:22:50;;;;;;;6.70;0.90;;;;;;;;;;5033098;28;20022;-48
2021/01/21 04:25:18;;;;;;;10.07;1.65;;;;;;;;;;5014569;28;20025;-47
2021/01/21 04:27:46;;;;;;;6.13;1.00;;;;;;;;;;5013013;28;20052;-47
2021/01/21 04:30:14;;;;;;;9.63;1.00;;;;;;;;;;5013074;28;20034;-46
2021/01/21 04:32:42;;;;;;;3.78;0.50;;;;;;;;;;5012839;28;20378;-45
2021/01/21 04:35:11;;;;;;;3.50;0.80;;;;;;;;;;5016056;28;20034;-48
2021/01/21 04:37:39;;;;;;;4.55;0.70;;;;;;;;;;5015003;28;20108;-48
2021/01/21 04:40:07;;;;;;;8.43;0.95;;;;;;;;;;4995376;28;20428;-46
2021/01/21 04:42:35;;;;;;;9.20;0.80;;;;;;;;;;5013257;28;20050;-47
2021/01/21 04:45:04;;;;;;;6.05;0.77;;;;;;;;;;5012778;28;20022;-46
2021/01/21 04:47:31;;;;;;;3.00;0.80;;;;;;;;;;5012963;28;20029;-47
2021/01/21 04:50:00;;;;;;;6.45;0.75;;;;;;;;;;4995725;28;20022;-47
2021/01/21 04:52:29;;;;;;;8.43;1.00;;;;;;;;;;5012568;28;20363;-48
2021/01/21 04:55:01;;;;;;;4.40;0.90;;;;;;;;;;5012838;28;20026;-48
2021/01/21 04:57:51;;;;;;;4.43;0.80;;;;;;;;;;5012674;28;20033;-46
2021/01/21 05:00:20;;;;;;;7.05;0.90;;;;;;;;;;5012516;28;20490;-46
2021/01/21 05:02:49;;;;;;;5.43;0.65;;;;;;;;;;5012931;28;20038;-46
2021/01/21 05:05:17;;;;;;;5.55;0.90;;;;;;;;;;5012883;28;20018;-47
2021/01/21 05:07:45;;;;;;;4.70;0.80;;;;;;;;;;5012426;28;20133;-45
2021/01/21 05:10:13;;;;;;;6.85;0.80;;;;;;;;;;5012379;28;20037;-45
2021/01/21 05:12:41;;;;;;;5.40;0.80;;;;;;;;;;5012623;28;20029;-47
2021/01/21 05:15:08;;;;;;;4.97;0.93;;;;;;;;;;5012425;28;20079;-50
2021/01/21 05:17:35;;;;;;;5.03;0.95;;;;;;;;;;5012639;28;20426;-49
2021/01/21 05:20:02;;;;;;;10.68;1.05;;;;;;;;;;5011373;28;20061;-52
2021/01/21 05:22:29;;;;;;;7.13;1.00;;;;;;;;;;5011626;28;20026;-48
2021/01/21 05:24:57;;;;;;;4.85;0.70;;;;;;;;;;5011911;28;20018;-51
2021/01/21 05:27:24;;;;;;;6.70;0.68;;;;;;;;;;5011789;28;20032;-53
2021/01/21 05:29:51;;;;;;;4.65;1.05;;;;;;;;;;5011852;28;20089;-50
2021/01/21 05:32:19;;;;;;;5.35;0.70;;;;;;;;;;5011825;28;20037;-51
2021/01/21 05:34:47;;;;;;;11.23;1.73;;;;;;;;;;5012174;28;20428;-50
2021/01/21 05:37:15;;;;;;;6.90;1.15;;;;;;;;;;5011742;28;20077;-51
2021/01/21 05:39:43;;;;;;;5.22;1.10;;;;;;;;;;5011182;28;20022;-52
2021/01/21 05:42:10;;;;;;;11.25;1.10;;;;;;;;;;5011671;28;20041;-52
2021/01/21 05:44:38;;;;;;;4.25;0.75;;;;;;;;;;5011743;28;20098;-50
2021/01/21 05:47:06;;;;;;;8.88;1.05;;;;;;;;;;5011496;28;20048;-50
2021/01/21 05:49:33;;;;;;;3.83;0.95;;;;;;;;;;5011606;28;20026;-49
2021/01/21 05:52:00;;;;;;;5.03;0.95;;;;;;;;;;5011697;28;20064;-50
2021/01/21 05:54:28;;;;;;;8.25;1.00;;;;;;;;;;5010237;28;20382;-47
2021/01/21 05:56:56;;;;;;;6.40;0.90;;;;;;;;;;5011572;28;20170;-49
2021/01/21 05:59:26;;;;;;;5.43;0.85;;;;;;;;;;5011732;28;20419;-49
2021/01/21 06:01:54;;;;;;;5.20;1.30;;;;;;;;;;5011295;28;20030;-50
2021/01/21 06:04:26;;;;;;;7.30;0.75;;;;;;;;;;5013923;28;20018;-49
2021/01/21 06:06:54;;;;;;;5.85;0.98;;;;;;;;;;5014915;28;20081;-50
2021/01/21 06:09:28;;;;;;;3.90;0.75;;;;;;;;;;5013607;28;20029;-50
2021/01/21 06:12:05;;;;;;;6.90;1.17;;;;;;;;;;5013448;28;20402;-48
2021/01/21 06:14:33;;;;;;;8.73;1.00;;;;;;;;;;5014774;28;20025;-48
2021/01/21 06:17:00;;;;;;;9.32;0.98;;;;;;;;;;5014605;28;20141;-48
2021/01/21 06:19:27;;;;;;;3.57;0.90;;;;;;;;;;4947957;28;1936212;-47
2021/01/21 06:21:58;;;;;;;4.72;0.88;;;;;;;;;;5015680;28;20061;-48
2021/01/21 06:24:31;;;;;;;6.95;1.00;;;;;;;;;;5016018;28;20105;-49
2021/01/21 06:27:02;;;;;;;5.90;1.13;;;;;;;;;;5015758;28;20104;-49
2021/01/21 06:29:29;;;;;;;4.32;1.02;;;;;;;;;;5015706;28;20022;-49
2021/01/21 06:32:03;;;;;;;6.85;1.05;;;;;;;;;;5015593;28;20038;-51
2021/01/21 06:34:36;;;;;;;7.78;0.90;;;;;;;;;;5015628;28;20065;-52
2021/01/21 06:37:04;;;;;;;4.72;1.00;;;;;;;;;;5015587;28;20112;-49
2021/01/21 06:39:40;;;;;;;10.32;1.10;;;;;;;;;;5015403;28;20026;-48
2021/01/21 06:42:08;;;;;;;6.05;1.15;;;;;;;;;;5015506;28;20037;-49
2021/01/21 06:44:35;;;;;;;6.88;1.05;;;;;;;;;;5015657;28;20018;-47
2021/01/21 06:47:02;;;;;;;4.05;0.90;;;;;;;;;;5015579;28;20030;-49
2021/01/21 06:49:30;;;;;;;8.70;0.85;;;;;;;;;;5015226;28;20025;-50
2021/01/21 06:51:57;;;;;;;2.47;0.82;;;;;;;;;;5015229;28;20041;-48
2021/01/21 06:54:24;;;;;;;9.05;1.08;;;;;;;;;;5015475;28;20371;-48
2021/01/21 06:56:51;;;;;;;5.43;0.95;;;;;;;;;;5015177;28;20075;-48
2021/01/21 06:59:38;;;;;;;5.28;1.08;;;;;;;;;;5015131;28;20474;-48
2021/01/21 07:02:05;;;;;;;6.63;1.38;;;;;;;;;;5014824;28;20080;-49
2021/01/21 07:04:32;;;;;;;2.85;0.90;;;;;;;;;;4998016;28;20026;-48
2021/01/21 07:07:03;;;;;;;13.88;1.10;;;;;;;;;;5015001;28;20029;-48
2021/01/21 07:09:32;;;;;;;5.95;0.90;;;;;;;;;;5015020;28;20045;-46
2021/01/21 07:12:03;;;;;;;11.07;1.58;;;;;;;;;;5014946;28;20041;-46
2021/01/21 07:14:32;;;;;;;5.55;1.00;;;;;;;;;;5014738;28;20017;-47
2021/01/21 07:17:04;;;;;;;7.00;0.90;;;;;;;;;;5014674;28;20030;-47
2021/01/21 07:19:31;;;;;;;5.97;0.98;;;;;;;;;;5014604;28;20125;-48
2021/01/21 07:21:58;;;;;;;8.60;0.85;;;;;;;;;;5014983;28;20022;-51
2021/01/21 07:24:27;;;;;;;8.65;1.08;;;;;;;;;;5014747;28;20167;-48
2021/01/21 07:26:54;;;;;;;4.32;1.30;;;;;;;;;;5014688;28;20026;-48
2021/01/21 07:29:22;;;;;;;3.70;1.00;;;;;;;;;;5014549;28;20034;-47
2021/01/21 07:31:59;;;;;;;6.03;1.10;;;;;;;;;;5013155;28;20124;-49
2021/01/21 07:34:26;;;;;;;8.48;1.15;;;;;;;;;;5014468;28;20381;-48
2021/01/21 07:37:11;;;;;;;6.05;1.20;;;;;;;;;;5014413;28;20084;-48
2021/01/21 07:39:56;;;;;;;11.88;1.20;;;;;;;;;;5014286;28;20109;-48
2021/01/21 07:42:43;;;;;;;9.50;1.25;;;;;;;;;;5014211;28;20391;-49
2021/01/21 07:45:15;;;;;;;5.15;0.85;;;;;;;;;;5004134;28;20041;-48
2021/01/21 07:47:43;;;;;;;5.20;1.05;;;;;;;;;;5014458;28;20553;-50
2021/01/21 07:50:21;;;;;;;10.77;1.25;;;;;;;;;;5012743;28;20445;-48
2021/01/21 07:52:48;;;;;;;8.85;1.10;;;;;;;;;;5014083;28;20033;-47
2021/01/21 07:55:15;;;;;;;7.22;1.10;;;;;;;;;;5014129;28;20045;-47
2021/01/21 07:57:42;;;;;;;6.97;1.27;;;;;;;;;;5014237;28;20026;-49
2021/01/21 08:00:11;;;;;;;3.80;0.95;;;;;;;;;;5013804;28;20101;-48
2021/01/21 08:02:44;;;;;;;6.40;1.13;;;;;;;;;;5013815;28;20061;-52
2021/01/21 08:05:11;;;;;;;5.70;1.25;;;;;;;;;;5014109;28;20022;-51
2021/01/21 08:07:46;;;;;;;4.68;0.88;;;;;;;;;;5013747;28;20470;-50
2021/01/21 08:10:13;;;;;;;4.45;0.82;;;;;;;;;;5012451;28;20036;-53
2021/01/21 08:12:40;;;;;;;5.95;1.00;;;;;;;;;;5013851;28;20033;-52
2021/01/21 08:15:17;;;;;;;6.30;0.98;;;;;;;;;;5014053;28;20182;-55
2021/01/21 08:17:45;;;;;;;7.82;1.52;;;;;;;;;;5013668;28;20026;-47
2021/01/21 08:20:13;;;;;;;7.15;1.23;;;;;;;;;;5012136;28;20053;-47
2021/01/21 08:22:52;;;;;;;6.05;1.13;;;;;;;;;;5013899;28;20101;-48
2021/01/21 08:25:20;;;;;;;6.20;1.00;;;;;;;;;;5013579;28;20026;-49
2021/01/21 08:27:50;;;;;;;4.22;1.00;;;;;;;;;;5013283;28;20026;-48
2021/01/21 08:30:30;;;;;;;7.43;1.10;;;;;;;;;;5013328;28;20117;-48
2021/01/21 08:33:05;;;;;;;3.88;1.05;;;;;;;;;;5013513;28;20029;-48
2021/01/21 08:35:52;;;;;;;4.00;0.88;;;;;;;;;;5013418;28;20053;-49
2021/01/21 08:38:22;;;;;;;3.75;0.77;;;;;;;;;;5003137;28;20096;-48
2021/01/21 08:40:49;;;;;;;8.25;0.90;;;;;;;;;;5013438;28;20119;-48
2021/01/21 08:43:17;;;;;;;8.90;1.10;;;;;;;;;;5013250;28;20018;-48
2021/01/21 08:45:44;;;;;;;5.47;1.23;;;;;;;;;;5013191;28;20026;-51
2021/01/21 08:48:11;;;;;;;3.83;1.00;;;;;;;;;;5013376;28;20026;-52
2021/01/21 08:50:40;;;;;;;6.65;1.25;;;;;;;;;;5013010;28;20030;-50
2021/01/21 08:53:10;;;;;;;2.83;0.77;;;;;;;;;;5013124;28;20029;-48
2021/01/21 08:55:47;;;;;;;4.28;0.80;;;;;;;;;;5013094;28;20478;-50
2021/01/21 08:58:15;;;;;;;7.68;1.38;;;;;;;;;;5013276;28;20088;-48
2021/01/21 09:01:00;;;;;;;10.70;1.27;;;;;;;;;;5012940;28;20390;-49
2021/01/21 09:03:50;;;;;;;5.57;1.02;;;;;;;;;;5012955;28;20029;-50
2021/01/21 09:06:19;;;;;;;7.68;1.20;;;;;;;;;;5013015;28;20477;-48
2021/01/21 09:08:56;;;;;;;6.00;1.00;;;;;;;;;;5013071;28;20022;-52
2021/01/21 09:11:41;;;;;;;5.80;0.88;;;;;;;;;;5012863;28;20114;-53
2021/01/21 09:14:14;;;;;;;5.88;1.20;;;;;;;;;;5012889;28;20030;-49
2021/01/21 09:16:41;;;;;;;11.32;1.33;;;;;;;;;;5013023;28;20113;-53
2021/01/21 09:19:09;;;;;;;8.77;1.40;;;;;;;;;;5012564;28;20037;-47
2021/01/21 09:21:36;;;;;;;8.20;1.25;;;;;;;;;;5012809;28;20076;-49
2021/01/21 09:24:10;;;;;;;7.20;1.48;;;;;;;;;;5011626;28;20028;-48
2021/01/21 09:26:38;;;;;;;11.75;1.30;;;;;;;;;;5012886;28;20547;-47
2021/01/21 09:29:05;;;;;;;9.25;1.20;;;;;;;;;;5012636;28;20022;-47
2021/01/21 09:31:33;;;;;;;12.05;1.48;;;;;;;;;;5012506;28;20112;-52
2021/01/21 09:34:00;;;;;;;7.13;1.02;;;;;;;;;;5012897;28;20355;-53
2021/01/21 09:36:31;;;;;;;7.15;1.10;;;;;;;;;;5012582;28;20022;-51
2021/01/21 09:38:58;;;;;;;6.22;1.15;;;;;;;;;;5014905;28;20033;-53
2021/01/21 09:41:26;;;;;;;14.85;1.50;;;;;;;;;;5016775;28;20709;-53
2021/01/21 09:43:53;;;;;;;7.82;1.30;;;;;;;;;;5016453;28;20053;-54
2021/01/21 09:46:20;;;;;;;8.95;1.23;;;;;;;;;;5016539;28;20022;-49
2021/01/21 09:48:47;;;;;;;11.38;1.33;;;;;;;;;;5016659;28;20083;-50
2021/01/21 09:51:14;;;;;;;8.82;1.00;;;;;;;;;;5016455;28;20109;-51
2021/01/21 09:53:41;;;;;;;9.88;1.35;;;;;;;;;;4999093;28;20025;-49
2021/01/21 09:56:08;;;;;;;15.65;1.45;;;;;;;;;;5016419;28;20029;-48
2021/01/21 09:58:35;;;;;;;7.57;1.40;;;;;;;;;;5016378;28;20018;-50
2021/01/21 10:01:02;;;;;;;13.32;2.03;;;;;;;;;;5016239;28;20084;-52
2021/01/21 10:03:29;;;;;;;10.95;1.60;;;;;;;;;;5016391;28;20097;-48
2021/01/21 10:05:56;;;;;;;14.68;1.45;;;;;;;;;;5016233;28;20028;-48
2021/01/21 10:08:23;;;;;;;15.98;1.75;;;;;;;;;;5014747;28;20022;-50
2021/01/21 10:10:50;;;;;;;12.10;1.60;;;;;;;;;;5016019;28;20033;-52
2021/01/21 10:13:18;;;;;;;9.75;1.58;;;;;;;;;;5016135;28;20257;-47
2021/01/21 10:15:45;;;;;;;17.35;1.48;;;;;;;;;;5016094;28;20421;-50
2021/01/21 10:18:12;;;;;;;17.88;1.70;;;;;;;;;;5016047;28;20025;-53
2021/01/21 10:20:39;;;;;;;11.52;1.58;;;;;;;;;;5015884;28;20042;-50
2021/01/21 10:23:06;;;;;;;9.80;1.20;;;;;;;;;;5015910;28;20030;-49
2021/01/21 10:25:33;;;;;;;10.38;1.27;;;;;;;;;;5015660;28;20024;-49
2021/01/21 10:28:00;;;;;;;9.82;1.52;;;;;;;;;;5015796;28;20037;-51
2021/01/21 10:30:27;;;;;;;8.45;1.67;;;;;;;;;;5015703;28;20065;-53
2021/01/21 10:32:54;;;;;;;16.90;1.75;;;;;;;;;;5015507;28;20393;-51
2021/01/21 10:35:21;;;;;;;8.65;1.77;;;;;;;;;;5015772;28;20029;-52
2021/01/21 10:37:48;;;;;;;18.35;2.15;;;;;;;;;;5015519;28;20402;-49
2021/01/21 10:40:16;;;;;;;20.00;2.33;;;;;;;;;;5015531;28;20022;-49
2021/01/21 10:42:43;;;;;;;15.13;1.98;;;;;;;;;;5015701;28;20026;-52
2021/01/21 10:45:10;;;;;;;14.90;1.60;;;;;;;;;;5015039;28;20478;-50
2021/01/21 10:47:37;;;;;;;16.23;1.90;;;;;;;;;;5015459;28;20057;-51
2021/01/21 10:51:31;;;;;;;15.95;1.77;;;;;;;;;;5129798;27;20108;-45
2021/01/21 10:53:58;;;;;;;13.35;3.13;;;;;;;;;;5130464;27;20038;-43
2021/01/21 10:56:25;;;;;;;19.52;2.25;;;;;;;;;;5130334;27;20016;-42
2021/01/21 10:58:52;;;;;;;17.58;1.95;;;;;;;;;;5112915;27;20472;-45
2021/01/21 11:01:20;;;;;;;13.02;2.22;;;;;;;;;;5101006;28;20028;-44
2021/01/21 11:03:47;;;;;;;23.48;2.38;;;;;;;;;;5108169;28;20486;-42
2021/01/21 11:06:14;;;;;;;22.95;2.30;;;;;;;;;;5109244;28;20019;-42
2021/01/21 11:08:41;;;;;;;11.63;1.70;;;;;;;;;;5108272;28;20020;-45
2021/01/21 11:11:08;;;;;;;20.50;2.42;;;;;;;;;;5107359;28;20111;-43
2021/01/21 11:13:35;;;;;;;19.52;2.28;;;;;;;;;;5106295;28;20015;-45
2021/01/21 11:16:02;;;;;;;18.83;1.75;;;;;;;;;;5105696;28;20027;-45
2021/01/21 11:18:29;;;;;;;15.77;2.33;;;;;;;;;;5107085;28;20467;-47
2021/01/21 11:20:56;;;;;;;25.65;2.28;;;;;;;;;;5107232;28;20035;-44
2021/01/21 11:23:23;;;;;;;17.58;2.20;;;;;;;;;;5098031;28;20031;-45
2021/01/21 11:25:50;;;;;;;20.48;2.63;;;;;;;;;;5102215;28;20025;-44
2021/01/21 11:28:20;;;;;;;21.98;2.33;;;;;;;;;;5106434;28;20533;-42
2021/01/21 11:30:51;;;;;;;22.00;3.10;;;;;;;;;;5092272;28;20127;-44
2021/01/21 11:33:18;;;;;;;26.08;2.70;;;;;;;;;;5088482;28;20027;-41
2021/01/21 11:35:45;;;;;;;13.98;2.28;;;;;;;;;;5093576;28;20020;-45
2021/01/21 11:38:13;;;;;;;10.80;2.33;;;;;;;;;;5086957;28;20066;-42
2021/01/21 11:40:40;;;;;;;26.15;2.50;;;;;;;;;;5107754;28;20028;-42
2021/01/21 11:43:08;;;;;;;32.00;2.72;;;;;;;;;;5087219;28;20026;-42
2021/01/21 11:45:35;;;;;;;30.05;2.58;;;;;;;;;;5091940;28;20509;-43
2021/01/21 11:48:02;;;;;;;16.50;2.10;;;;;;;;;;5100168;28;20062;-45
2021/01/21 11:50:29;;;;;;;18.08;2.15;;;;;;;;;;5097427;28;20052;-45
2021/01/21 11:52:56;;;;;;;27.60;2.20;;;;;;;;;;5087650;28;20014;-42
2021/01/21 11:55:24;;;;;;;20.20;2.65;;;;;;;;;;5102222;28;20122;-42
2021/01/21 11:57:51;;;;;;;25.42;2.40;;;;;;;;;;5093352;28;20107;-42
2021/01/21 12:00:18;;;;;;;17.52;1.83;;;;;;;;;;5104509;28;20028;-43
2021/01/21 12:02:45;;;;;;;31.73;2.38;;;;;;;;;;5085328;28;20388;-43
2021/01/21 12:05:12;;;;;;;19.55;2.30;;;;;;;;;;5083614;28;20043;-44
2021/01/21 12:07:40;;;;;;;19.73;2.10;;;;;;;;;;5090357;28;20047;-43
2021/01/21 12:10:07;;;;;;;21.75;2.30;;;;;;;;;;5080796;28;20068;-47
2021/01/21 12:12:35;;;;;;;39.72;3.78;;;;;;;;;;5087100;28;20044;-44
2021/01/21 12:15:02;;;;;;;20.83;2.65;;;;;;;;;;5081211;28;20107;-45
2021/01/21 12:17:29;;;;;;;25.95;2.50;;;;;;;;;;5074920;28;20025;-46
2021/01/21 12:19:56;;;;;;;32.80;2.83;;;;;;;;;;5075453;28;20017;-44
2021/01/21 12:22:23;;;;;;;46.88;3.40;;;;;;;;;;5077395;28;20047;-47
2021/01/21 12:24:50;;;;;;;37.13;3.00;;;;;;;;;;5073861;28;20028;-48
2021/01/21 12:27:17;;;;;;;36.75;3.08;;;;;;;;;;5074106;28;20492;-46
2021/01/21 12:29:44;;;;;;;27.27;3.80;;;;;;;;;;5073796;28;20025;-43
2021/01/21 12:32:11;;;;;;;33.25;4.55;;;;;;;;;;5073824;28;20028;-44
2021/01/21 12:34:38;;;;;;;24.13;2.42;;;;;;;;;;5073941;28;20013;-45
2021/01/21 12:37:05;;;;;;;28.90;2.85;;;;;;;;;;5073737;28;20024;-42
2021/01/21 12:39:33;;;;;;;35.25;3.15;;;;;;;;;;5073707;28;20023;-44
2021/01/21 12:42:00;;;;;;;36.28;2.88;;;;;;;;;;5072481;28;20028;-45
2021/01/21 12:44:27;;;;;;;35.97;3.00;;;;;;;;;;5073516;28;20060;-44
2021/01/21 12:46:54;;;;;;;32.10;3.92;;;;;;;;;;5077533;28;20389;-44
2021/01/21 12:49:21;;;;;;;30.17;2.78;;;;;;;;;;5076634;28;20503;-44
2021/01/21 12:51:48;;;;;;;24.30;2.58;;;;;;;;;;5073565;28;20504;-41
2021/01/21 12:54:15;;;;;;;20.98;2.05;;;;;;;;;;5073422;28;20047;-43
2021/01/21 12:56:42;;;;;;;14.95;2.15;;;;;;;;;;5073268;28;20048;-43
2021/01/21 12:59:09;;;;;;;32.00;2.67;;;;;;;;;;5080907;28;20012;-45
2021/01/21 13:01:37;;;;;;;36.58;3.33;;;;;;;;;;5093696;28;20024;-43
2021/01/21 13:04:04;;;;;;;19.17;2.50;;;;;;;;;;5093652;28;20471;-42
2021/01/21 13:06:31;;;;;;;30.45;2.72;;;;;;;;;;5093505;28;20024;-43
2021/01/21 13:08:58;;;;;;;22.08;2.15;;;;;;;;;;5093334;28;20020;-43
2021/01/21 13:11:25;;;;;;;17.40;1.80;;;;;;;;;;5093450;28;20035;-46
2021/01/21 13:13:52;;;;;;;17.40;2.05;;;;;;;;;;5092304;28;20044;-46
2021/01/21 13:16:20;;;;;;;22.30;1.85;;;;;;;;;;5093373;28;20016;-43
2021/01/21 13:18:47;;;;;;;17.45;2.00;;;;;;;;;;5093232;28;20023;-42
2021/01/21 13:21:14;;;;;;;22.42;1.80;;;;;;;;;;5093234;28;20027;-47
2021/01/21 13:23:41;;;;;;;21.13;2.22;;;;;;;;;;5093182;28;20035;-47
2021/01/21 13:26:08;;;;;;;34.13;2.55;;;;;;;;;;5093088;28;20588;-43
2021/01/21 13:28:35;;;;;;;25.00;2.22;;;;;;;;;;5093087;28;20069;-42
2021/01/21 13:31:02;;;;;;;37.45;2.17;;;;;;;;;;5092628;28;20023;-44
2021/01/21 13:33:29;;;;;;;17.30;2.17;;;;;;;;;;5092392;28;20047;-43
2021/01/21 13:35:56;;;;;;;22.65;1.80;;;;;;;;;;5088290;28;20028;-44
2021/01/21 13:38:23;;;;;;;21.00;2.13;;;;;;;;;;5070907;28;20480;-41
2021/01/21 13:40:51;;;;;;;20.23;1.98;;;;;;;;;;5079331;28;20036;-41
2021/01/21 13:43:18;;;;;;;23.52;2.22;;;;;;;;;;5083080;28;20024;-40
2021/01/21 13:45:45;;;;;;;35.28;3.67;;;;;;;;;;5082145;28;20119;-50
2021/01/21 13:48:12;;;;;;;19.73;1.90;;;;;;;;;;5077543;28;20030;-45
2021/01/21 13:50:39;;;;;;;28.98;3.83;;;;;;;;;;5087990;28;20131;-45
2021/01/21 13:53:06;;;;;;;41.92;3.17;;;;;;;;;;5076835;28;20024;-41
2021/01/21 13:55:33;;;;;;;35.92;2.53;;;;;;;;;;5084767;28;20027;-42
2021/01/21 13:58:00;;;;;;;35.80;2.78;;;;;;;;;;5084538;28;20059;-45
2021/01/21 14:00:28;;;;;;;29.63;3.15;;;;;;;;;;5088623;28;20081;-46
2021/01/21 14:02:55;;;;;;;54.25;4.43;;;;;;;;;;5090385;28;20012;-44
2021/01/21 14:05:22;;;;;;;39.03;3.22;;;;;;;;;;5082803;28;20025;-42
2021/01/21 14:07:49;;;;;;;42.95;4.32;;;;;;;;;;5089080;28;20042;-41
2021/01/21 14:10:16;;;;;;;44.13;4.80;;;;;;;;;;5087839;28;20115;-43
2021/01/21 14:12:43;;;;;;;39.83;4.75;;;;;;;;;;5086716;28;20058;-43
2021/01/21 14:15:11;;;;;;;45.22;4.00;;;;;;;;;;5076076;28;20020;-48
2021/01/21 14:17:37;;;;;;;43.47;3.80;;;;;;;;;;5071009;28;20074;-51
2021/01/21 14:20:05;;;;;;;40.42;3.33;;;;;;;;;;5070076;28;20016;-49
2021/01/21 14:22:32;;;;;;;36.88;3.70;;;;;;;;;;5071702;28;20020;-52
2021/01/21 14:24:59;;;;;;;49.65;4.10;;;;;;;;;;5071500;28;20433;-48
2021/01/21 14:27:27;;;;;;;64.95;5.68;;;;;;;;;;5070599;28;20052;-49
2021/01/21 14:29:54;;;;;;;45.92;4.80;;;;;;;;;;5071843;28;20029;-49
2021/01/21 14:32:21;;;;;;;58.00;5.43;;;;;;;;;;5071511;28;20387;-49
2021/01/21 14:34:48;;;;;;;54.63;4.88;;;;;;;;;;5071944;28;20017;-48
2021/01/21 14:37:15;;;;;;;39.60;4.65;;;;;;;;;;5071146;28;20514;-48
2021/01/21 14:39:42;;;;;;;48.03;4.85;;;;;;;;;;5072412;28;20031;-45
2021/01/21 14:42:09;;;;;;;68.22;5.75;;;;;;;;;;5070627;28;20035;-48
2021/01/21 14:44:38;;;;;;;61.22;5.22;;;;;;;;;;5071113;28;20116;-55
2021/01/21 14:47:05;;;;;;;57.95;6.40;;;;;;;;;;5071237;28;20025;-57